sensor_id;sensor_type;location;lat;lon;timestamp;pressure;altitude;pressure_sealevel;temperature;humidity
78317;BME280;67572;50.930;18.276;2023-07-31T00:08:25;98657.03;;;15.96;87.20
78317;BME280;67572;50.930;18.276;2023-07-31T00:15:45;98678.44;;;15.78;88.28
78317;BME280;67572;50.930;18.276;2023-07-31T00:18:48;98682.59;;;15.91;87.74
78317;BME280;67572;50.930;18.276;2023-07-31T00:23:25;98673.56;;;15.92;87.84
78317;BME280;67572;50.930;18.276;2023-07-31T00:26:28;98676.41;;;15.90;88.22
78317;BME280;67572;50.930;18.276;2023-07-31T06:58:24;98774.56;;;18.64;66.20
78317;BME280;67572;50.930;18.276;2023-07-31T07:01:28;98778.66;;;18.76;65.61
78317;BME280;67572;50.930;18.276;2023-07-31T07:05:58;98776.63;;;18.78;64.69
78317;BME280;67572;50.930;18.276;2023-07-31T07:09:02;98783.06;;;19.09;64.22
78317;BME280;67572;50.930;18.276;2023-07-31T07:12:07;98788.28;;;19.19;62.81
78317;BME280;67572;50.930;18.276;2023-07-31T07:17:10;98778.00;;;19.15;62.59
78317;BME280;67572;50.930;18.276;2023-07-31T07:22:00;98780.69;;;19.39;62.26
78317;BME280;67572;50.930;18.276;2023-07-31T07:26:07;98782.06;;;19.35;62.25
78317;BME280;67572;50.930;18.276;2023-07-31T07:29:11;98779.19;;;19.45;62.46
78317;BME280;67572;50.930;18.276;2023-07-31T07:32:14;98784.91;;;19.74;61.01
78317;BME280;67572;50.930;18.276;2023-07-31T07:35:19;98781.69;;;19.62;60.45
78317;BME280;67572;50.930;18.276;2023-07-31T07:40:26;98784.22;;;19.80;60.09
78317;BME280;67572;50.930;18.276;2023-07-31T07:43:29;98784.34;;;19.95;60.80
78317;BME280;67572;50.930;18.276;2023-07-31T07:46:33;98779.22;;;20.08;59.94
78317;BME280;67572;50.930;18.276;2023-07-31T07:49:37;98776.97;;;19.81;60.12
78317;BME280;67572;50.930;18.276;2023-07-31T07:52:40;98772.13;;;20.07;60.95
78317;BME280;67572;50.930;18.276;2023-07-31T07:55:48;98784.38;;;19.71;59.19
78317;BME280;67572;50.930;18.276;2023-07-31T07:58:52;98782.44;;;20.04;59.78
78317;BME280;67572;50.930;18.276;2023-07-31T08:01:56;98776.31;;;20.18;58.62
78317;BME280;67572;50.930;18.276;2023-07-31T08:04:59;98776.75;;;20.69;58.43
78317;BME280;67572;50.930;18.276;2023-07-31T08:08:03;98767.69;;;20.85;57.72
78317;BME280;67572;50.930;18.276;2023-07-31T08:11:07;98768.28;;;20.49;58.04
78317;BME280;67572;50.930;18.276;2023-07-31T08:14:11;98774.59;;;20.64;57.60
78317;BME280;67572;50.930;18.276;2023-07-31T08:17:14;98766.56;;;21.25;56.86
78317;BME280;67572;50.930;18.276;2023-07-31T08:20:18;98767.88;;;20.83;56.98
78317;BME280;67572;50.930;18.276;2023-07-31T08:23:22;98760.41;;;21.08;57.14
78317;BME280;67572;50.930;18.276;2023-07-31T08:26:28;98757.00;;;21.14;57.23
78317;BME280;67572;50.930;18.276;2023-07-31T08:29:31;98763.16;;;21.23;55.49
78317;BME280;67572;50.930;18.276;2023-07-31T08:32:35;98755.56;;;21.03;55.28
78317;BME280;67572;50.930;18.276;2023-07-31T08:37:00;98749.72;;;21.15;55.30
78317;BME280;67572;50.930;18.276;2023-07-31T08:40:04;98749.69;;;20.77;53.42
78317;BME280;67572;50.930;18.276;2023-07-31T08:43:09;98746.50;;;21.57;53.00
78317;BME280;67572;50.930;18.276;2023-07-31T08:46:13;98754.81;;;21.55;52.67
78317;BME280;67572;50.930;18.276;2023-07-31T08:49:17;98745.88;;;21.70;52.84
78317;BME280;67572;50.930;18.276;2023-07-31T08:52:24;98739.97;;;21.66;52.46
78317;BME280;67572;50.930;18.276;2023-07-31T08:55:28;98747.50;;;21.41;52.87
78317;BME280;67572;50.930;18.276;2023-07-31T08:58:33;98735.97;;;21.77;50.89
78317;BME280;67572;50.930;18.276;2023-07-31T09:02:53;98744.50;;;21.36;52.01
78317;BME280;67572;50.930;18.276;2023-07-31T09:06:55;98751.44;;;21.39;52.43
78317;BME280;67572;50.930;18.276;2023-07-31T09:12:26;98751.44;;;22.27;50.54
78317;BME280;67572;50.930;18.276;2023-07-31T09:23:07;98735.50;;;22.18;47.73
78317;BME280;67572;50.930;18.276;2023-07-31T09:26:53;98734.00;;;22.30;47.69
78317;BME280;67572;50.930;18.276;2023-07-31T09:40:27;98721.19;;;22.81;44.71
78317;BME280;67572;50.930;18.276;2023-07-31T09:43:30;98716.03;;;23.29;43.86
78317;BME280;67572;50.930;18.276;2023-07-31T09:47:46;98711.41;;;23.23;45.02
78317;BME280;67572;50.930;18.276;2023-07-31T09:57:49;98709.06;;;23.20;44.00
78317;BME280;67572;50.930;18.276;2023-07-31T10:13:08;98694.94;;;23.80;42.17
78317;BME280;67572;50.930;18.276;2023-07-31T10:20:23;98682.22;;;23.04;41.30
78317;BME280;67572;50.930;18.276;2023-07-31T10:28:00;98689.22;;;22.70;43.20
78317;BME280;67572;50.930;18.276;2023-07-31T10:35:49;98687.00;;;23.23;40.93
78317;BME280;67572;50.930;18.276;2023-07-31T10:38:55;98672.88;;;22.85;40.54
78317;BME280;67572;50.930;18.276;2023-07-31T10:41:59;98676.47;;;22.85;41.83
78317;BME280;67572;50.930;18.276;2023-07-31T10:45:04;98678.16;;;23.14;42.12
78317;BME280;67572;50.930;18.276;2023-07-31T10:48:13;98678.06;;;23.01;41.69
78317;BME280;67572;50.930;18.276;2023-07-31T10:51:20;98671.97;;;22.78;42.17
78317;BME280;67572;50.930;18.276;2023-07-31T10:54:25;98676.63;;;22.62;42.09
78317;BME280;67572;50.930;18.276;2023-07-31T10:57:35;98674.50;;;22.58;42.22
78317;BME280;67572;50.930;18.276;2023-07-31T11:00:41;98664.78;;;22.27;43.72
78317;BME280;67572;50.930;18.276;2023-07-31T11:03:47;98673.59;;;22.29;44.44
78317;BME280;67572;50.930;18.276;2023-07-31T11:07:00;98669.25;;;22.35;44.56
78317;BME280;67572;50.930;18.276;2023-07-31T11:10:06;98670.75;;;22.37;44.58
78317;BME280;67572;50.930;18.276;2023-07-31T11:13:10;98679.78;;;22.45;45.60
78317;BME280;67572;50.930;18.276;2023-07-31T11:16:13;98671.78;;;22.22;44.54
78317;BME280;67572;50.930;18.276;2023-07-31T11:19:21;98665.44;;;22.51;45.15
78317;BME280;67572;50.930;18.276;2023-07-31T11:22:27;98667.34;;;22.93;44.44
78317;BME280;67572;50.930;18.276;2023-07-31T11:25:31;98664.53;;;22.22;46.52
78317;BME280;67572;50.930;18.276;2023-07-31T11:28:35;98663.66;;;22.22;46.76
78317;BME280;67572;50.930;18.276;2023-07-31T11:31:42;98667.91;;;22.46;47.22
78317;BME280;67572;50.930;18.276;2023-07-31T11:34:55;98662.72;;;22.08;48.12
78317;BME280;67572;50.930;18.276;2023-07-31T11:38:01;98669.88;;;22.15;48.54
78317;BME280;67572;50.930;18.276;2023-07-31T11:41:04;98664.69;;;23.00;47.36
78317;BME280;67572;50.930;18.276;2023-07-31T11:44:08;98665.16;;;22.60;47.25
78317;BME280;67572;50.930;18.276;2023-07-31T11:47:28;98658.84;;;22.17;48.70
78317;BME280;67572;50.930;18.276;2023-07-31T11:50:33;98656.59;;;22.06;49.07
78317;BME280;67572;50.930;18.276;2023-07-31T11:53:43;98660.91;;;22.36;49.24
78317;BME280;67572;50.930;18.276;2023-07-31T11:56:47;98661.22;;;23.06;47.66
78317;BME280;67572;50.930;18.276;2023-07-31T11:59:52;98653.63;;;22.80;47.65
78317;BME280;67572;50.930;18.276;2023-07-31T12:02:56;98647.59;;;22.99;46.40
78317;BME280;67572;50.930;18.276;2023-07-31T12:06:00;98646.28;;;22.74;47.46
78317;BME280;67572;50.930;18.276;2023-07-31T12:09:20;98643.75;;;23.43;46.56
78317;BME280;67572;50.930;18.276;2023-07-31T12:12:26;98639.16;;;23.43;45.77
78317;BME280;67572;50.930;18.276;2023-07-31T12:15:33;98638.50;;;22.42;48.24
78317;BME280;67572;50.930;18.276;2023-07-31T12:18:37;98642.16;;;23.27;46.83
78317;BME280;67572;50.930;18.276;2023-07-31T12:21:41;98628.28;;;22.66;48.07
78317;BME280;67572;50.930;18.276;2023-07-31T12:24:46;98633.44;;;23.04;47.07
78317;BME280;67572;50.930;18.276;2023-07-31T12:27:50;98626.13;;;23.32;46.34
78317;BME280;67572;50.930;18.276;2023-07-31T12:30:57;98620.06;;;23.30;45.99
78317;BME280;67572;50.930;18.276;2023-07-31T12:34:01;98607.81;;;23.06;46.18
78317;BME280;67572;50.930;18.276;2023-07-31T12:37:06;98619.81;;;22.97;46.32
78317;BME280;67572;50.930;18.276;2023-07-31T12:40:11;98611.06;;;22.74;46.50
78317;BME280;67572;50.930;18.276;2023-07-31T12:43:15;98600.81;;;22.48;47.78
78317;BME280;67572;50.930;18.276;2023-07-31T12:46:18;98611.19;;;22.87;46.39
78317;BME280;67572;50.930;18.276;2023-07-31T12:49:22;98601.94;;;22.81;47.32
78317;BME280;67572;50.930;18.276;2023-07-31T12:52:25;98604.88;;;23.36;46.38
78317;BME280;67572;50.930;18.276;2023-07-31T12:55:30;98599.66;;;22.35;48.36
78317;BME280;67572;50.930;18.276;2023-07-31T12:58:36;98598.41;;;22.59;48.10
78317;BME280;67572;50.930;18.276;2023-07-31T13:01:39;98591.66;;;22.70;48.09
78317;BME280;67572;50.930;18.276;2023-07-31T13:04:43;98585.19;;;22.92;47.68
78317;BME280;67572;50.930;18.276;2023-07-31T13:07:46;98589.00;;;23.05;47.12
78317;BME280;67572;50.930;18.276;2023-07-31T13:10:55;98589.84;;;23.40;46.00
78317;BME280;67572;50.930;18.276;2023-07-31T13:13:58;98586.66;;;23.64;46.06
78317;BME280;67572;50.930;18.276;2023-07-31T13:17:03;98589.09;;;24.00;45.82
78317;BME280;67572;50.930;18.276;2023-07-31T13:20:08;98582.19;;;23.91;44.42
78317;BME280;67572;50.930;18.276;2023-07-31T13:23:11;98582.84;;;23.52;46.05
78317;BME280;67572;50.930;18.276;2023-07-31T13:26:16;98592.25;;;24.04;45.40
78317;BME280;67572;50.930;18.276;2023-07-31T13:29:20;98587.53;;;23.71;45.24
78317;BME280;67572;50.930;18.276;2023-07-31T13:32:24;98581.06;;;23.72;44.74
78317;BME280;67572;50.930;18.276;2023-07-31T13:35:28;98578.19;;;23.80;45.52
78317;BME280;67572;50.930;18.276;2023-07-31T13:38:33;98572.41;;;23.56;45.47
78317;BME280;67572;50.930;18.276;2023-07-31T13:41:38;98579.22;;;23.73;44.88
78317;BME280;67572;50.930;18.276;2023-07-31T13:44:42;98578.25;;;23.18;45.94
78317;BME280;67572;50.930;18.276;2023-07-31T13:47:47;98574.00;;;23.85;45.74
78317;BME280;67572;50.930;18.276;2023-07-31T13:50:52;98574.88;;;23.92;45.10
78317;BME280;67572;50.930;18.276;2023-07-31T13:53:56;98576.78;;;23.15;46.70
78317;BME280;67572;50.930;18.276;2023-07-31T13:57:02;98580.31;;;22.60;46.87
78317;BME280;67572;50.930;18.276;2023-07-31T14:00:07;98572.19;;;22.60;46.82
78317;BME280;67572;50.930;18.276;2023-07-31T14:03:11;98576.41;;;22.90;45.59
78317;BME280;67572;50.930;18.276;2023-07-31T14:06:14;98579.72;;;22.64;46.10
78317;BME280;67572;50.930;18.276;2023-07-31T14:09:18;98578.66;;;23.15;45.47
78317;BME280;67572;50.930;18.276;2023-07-31T14:12:23;98575.50;;;23.11;44.68
78317;BME280;67572;50.930;18.276;2023-07-31T14:15:32;98570.41;;;23.30;45.40
78317;BME280;67572;50.930;18.276;2023-07-31T14:18:38;98567.72;;;23.02;46.20
78317;BME280;67572;50.930;18.276;2023-07-31T14:21:41;98563.28;;;22.94;46.02
78317;BME280;67572;50.930;18.276;2023-07-31T14:24:55;98553.53;;;23.00;46.47
78317;BME280;67572;50.930;18.276;2023-07-31T14:28:00;98550.72;;;22.86;46.52
78317;BME280;67572;50.930;18.276;2023-07-31T14:31:03;98551.16;;;23.24;45.29
78317;BME280;67572;50.930;18.276;2023-07-31T14:34:07;98546.00;;;23.77;44.94
78317;BME280;67572;50.930;18.276;2023-07-31T14:37:10;98546.44;;;23.88;43.80
78317;BME280;67572;50.930;18.276;2023-07-31T14:40:14;98537.47;;;23.39;44.90
78317;BME280;67572;50.930;18.276;2023-07-31T14:43:19;98538.50;;;23.73;43.68
78317;BME280;67572;50.930;18.276;2023-07-31T14:46:23;98533.53;;;23.90;43.37
78317;BME280;67572;50.930;18.276;2023-07-31T14:49:26;98535.41;;;23.96;43.42
78317;BME280;67572;50.930;18.276;2023-07-31T14:52:30;98529.44;;;24.73;43.03
78317;BME280;67572;50.930;18.276;2023-07-31T14:55:33;98532.34;;;24.78;42.87
78317;BME280;67572;50.930;18.276;2023-07-31T14:58:38;98529.34;;;23.94;43.15
78317;BME280;67572;50.930;18.276;2023-07-31T15:01:42;98518.56;;;24.47;42.24
78317;BME280;67572;50.930;18.276;2023-07-31T15:04:45;98513.31;;;24.19;43.11
78317;BME280;67572;50.930;18.276;2023-07-31T15:07:49;98515.78;;;23.39;43.73
78317;BME280;67572;50.930;18.276;2023-07-31T15:10:54;98519.75;;;23.50;43.62
78317;BME280;67572;50.930;18.276;2023-07-31T15:14:02;98517.25;;;24.23;42.91
78317;BME280;67572;50.930;18.276;2023-07-31T15:17:06;98507.03;;;24.31;42.69
78317;BME280;67572;50.930;18.276;2023-07-31T15:20:11;98511.47;;;24.52;41.82
78317;BME280;67572;50.930;18.276;2023-07-31T15:23:15;98509.28;;;23.95;42.81
78317;BME280;67572;50.930;18.276;2023-07-31T15:26:19;98506.84;;;24.40;42.50
78317;BME280;67572;50.930;18.276;2023-07-31T15:29:24;98500.75;;;24.71;41.65
78317;BME280;67572;50.930;18.276;2023-07-31T15:32:28;98502.63;;;24.90;40.93
78317;BME280;67572;50.930;18.276;2023-07-31T15:35:32;98505.34;;;24.83;41.11
78317;BME280;67572;50.930;18.276;2023-07-31T15:38:35;98498.59;;;23.80;41.28
78317;BME280;67572;50.930;18.276;2023-07-31T15:41:40;98495.84;;;23.60;41.52
78317;BME280;67572;50.930;18.276;2023-07-31T15:44:45;98487.13;;;23.85;41.99
78317;BME280;67572;50.930;18.276;2023-07-31T15:49:05;98479.50;;;24.34;41.70
78317;BME280;67572;50.930;18.276;2023-07-31T15:52:08;98476.34;;;24.51;41.26
78317;BME280;67572;50.930;18.276;2023-07-31T15:55:12;98467.09;;;23.86;41.89
78317;BME280;67572;50.930;18.276;2023-07-31T15:58:15;98475.19;;;23.66;43.46
78317;BME280;67572;50.930;18.276;2023-07-31T16:01:19;98477.88;;;23.11;44.41
78317;BME280;67572;50.930;18.276;2023-07-31T16:04:24;98459.13;;;23.77;43.26
78317;BME280;67572;50.930;18.276;2023-07-31T16:07:27;98457.28;;;23.85;43.01
78317;BME280;67572;50.930;18.276;2023-07-31T16:10:31;98451.16;;;23.63;42.96
78317;BME280;67572;50.930;18.276;2023-07-31T16:13:35;98457.59;;;23.55;43.29
78317;BME280;67572;50.930;18.276;2023-07-31T16:16:38;98451.38;;;23.61;43.32
78317;BME280;67572;50.930;18.276;2023-07-31T16:20:34;98449.72;;;23.60;43.40
78317;BME280;67572;50.930;18.276;2023-07-31T16:23:38;98451.38;;;23.61;43.49
78317;BME280;67572;50.930;18.276;2023-07-31T16:27:15;98450.91;;;23.58;43.94
78317;BME280;67572;50.930;18.276;2023-07-31T16:30:19;98449.00;;;23.45;44.22
78317;BME280;67572;50.930;18.276;2023-07-31T16:33:22;98451.78;;;23.65;44.94
78317;BME280;67572;50.930;18.276;2023-07-31T16:36:28;98443.66;;;23.65;43.99
78317;BME280;67572;50.930;18.276;2023-07-31T16:39:32;98451.44;;;23.26;45.33
78317;BME280;67572;50.930;18.276;2023-07-31T16:42:39;98457.66;;;23.14;45.58
78317;BME280;67572;50.930;18.276;2023-07-31T16:45:43;98447.13;;;22.91;45.87
78317;BME280;67572;50.930;18.276;2023-07-31T16:48:46;98452.59;;;23.04;46.09
78317;BME280;67572;50.930;18.276;2023-07-31T16:51:50;98445.00;;;22.86;46.25
78317;BME280;67572;50.930;18.276;2023-07-31T16:54:54;98457.53;;;22.87;46.77
78317;BME280;67572;50.930;18.276;2023-07-31T16:57:59;98444.19;;;22.86;46.16
78317;BME280;67572;50.930;18.276;2023-07-31T17:01:03;98443.47;;;22.77;46.54
78317;BME280;67572;50.930;18.276;2023-07-31T17:04:07;98455.53;;;22.68;47.07
78317;BME280;67572;50.930;18.276;2023-07-31T17:07:10;98454.63;;;22.61;47.75
78317;BME280;67572;50.930;18.276;2023-07-31T17:10:15;98458.38;;;22.60;47.91
78317;BME280;67572;50.930;18.276;2023-07-31T17:13:20;98454.56;;;22.82;47.48
78317;BME280;67572;50.930;18.276;2023-07-31T17:16:24;98456.06;;;22.57;48.01
78317;BME280;67572;50.930;18.276;2023-07-31T17:22:21;98452.47;;;22.50;48.47
78317;BME280;67572;50.930;18.276;2023-07-31T17:25:45;98453.91;;;22.46;47.84
78317;BME280;67572;50.930;18.276;2023-07-31T17:28:49;98453.91;;;22.46;48.48
78317;BME280;67572;50.930;18.276;2023-07-31T17:31:53;98464.69;;;22.39;48.98
78317;BME280;67572;50.930;18.276;2023-07-31T17:34:57;98464.00;;;22.30;48.95
78317;BME280;67572;50.930;18.276;2023-07-31T17:38:03;98458.28;;;22.19;49.25
78317;BME280;67572;50.930;18.276;2023-07-31T17:41:07;98457.84;;;22.15;49.19
78317;BME280;67572;50.930;18.276;2023-07-31T17:44:11;98451.03;;;22.26;49.02
78317;BME280;67572;50.930;18.276;2023-07-31T17:47:15;98460.09;;;22.11;49.51
78317;BME280;67572;50.930;18.276;2023-07-31T17:50:19;98454.78;;;22.25;49.10
78317;BME280;67572;50.930;18.276;2023-07-31T17:53:24;98459.88;;;22.13;49.25
78317;BME280;67572;50.930;18.276;2023-07-31T17:56:30;98452.59;;;22.13;49.78
78317;BME280;67572;50.930;18.276;2023-07-31T17:59:33;98446.59;;;22.18;49.68
78317;BME280;67572;50.930;18.276;2023-07-31T18:02:37;98455.47;;;22.33;50.18
78317;BME280;67572;50.930;18.276;2023-07-31T18:05:41;98455.63;;;22.25;50.16
78317;BME280;67572;50.930;18.276;2023-07-31T18:08:46;98460.81;;;22.05;51.16
78317;BME280;67572;50.930;18.276;2023-07-31T18:11:49;98464.72;;;21.96;51.38
78317;BME280;67572;50.930;18.276;2023-07-31T18:14:53;98465.47;;;21.90;51.91
78317;BME280;67572;50.930;18.276;2023-07-31T18:17:56;98468.25;;;21.75;52.38
78317;BME280;67572;50.930;18.276;2023-07-31T18:21:00;98464.13;;;21.79;51.69
78317;BME280;67572;50.930;18.276;2023-07-31T18:24:05;98458.84;;;21.71;52.75
78317;BME280;67572;50.930;18.276;2023-07-31T18:27:09;98461.13;;;21.53;54.76
78317;BME280;67572;50.930;18.276;2023-07-31T18:30:12;98458.91;;;21.56;53.20
78317;BME280;67572;50.930;18.276;2023-07-31T18:33:16;98462.88;;;21.39;53.82
78317;BME280;67572;50.930;18.276;2023-07-31T18:36:19;98459.81;;;21.27;53.85
78317;BME280;67572;50.930;18.276;2023-07-31T18:39:24;98468.44;;;20.72;57.07
78317;BME280;67572;50.930;18.276;2023-07-31T18:42:30;98465.34;;;20.90;55.32
78317;BME280;67572;50.930;18.276;2023-07-31T18:45:33;98461.81;;;20.74;56.46
78317;BME280;67572;50.930;18.276;2023-07-31T18:48:37;98465.97;;;20.62;57.76
78317;BME280;67572;50.930;18.276;2023-07-31T18:51:41;98465.44;;;20.52;57.89
78317;BME280;67572;50.930;18.276;2023-07-31T18:54:46;98470.41;;;20.26;59.87
78317;BME280;67572;50.930;18.276;2023-07-31T18:57:50;98465.69;;;20.05;61.34
78317;BME280;67572;50.930;18.276;2023-07-31T19:00:53;98455.16;;;20.10;62.14
78317;BME280;67572;50.930;18.276;2023-07-31T19:03:57;98461.44;;;20.10;61.70
78317;BME280;67572;50.930;18.276;2023-07-31T19:07:02;98465.63;;;19.90;62.59
78317;BME280;67572;50.930;18.276;2023-07-31T19:10:09;98459.00;;;20.15;59.94
78317;BME280;67572;50.930;18.276;2023-07-31T19:13:17;98464.13;;;19.87;63.34
78317;BME280;67572;50.930;18.276;2023-07-31T19:16:21;98453.56;;;20.01;60.91
78317;BME280;67572;50.930;18.276;2023-07-31T19:19:25;98444.41;;;20.24;58.76
78317;BME280;67572;50.930;18.276;2023-07-31T19:22:31;98443.84;;;20.29;57.94
78317;BME280;67572;50.930;18.276;2023-07-31T19:25:36;98442.53;;;20.10;59.31
78317;BME280;67572;50.930;18.276;2023-07-31T19:28:40;98436.22;;;20.33;58.32
78317;BME280;67572;50.930;18.276;2023-07-31T19:31:43;98432.06;;;20.45;56.94
78317;BME280;67572;50.930;18.276;2023-07-31T19:34:47;98440.63;;;20.34;58.20
78317;BME280;67572;50.930;18.276;2023-07-31T19:37:51;98436.75;;;20.51;56.67
78317;BME280;67572;50.930;18.276;2023-07-31T19:40:58;98437.72;;;20.35;58.67
78317;BME280;67572;50.930;18.276;2023-07-31T19:44:03;98432.38;;;20.12;60.34
78317;BME280;67572;50.930;18.276;2023-07-31T19:47:07;98428.88;;;20.27;58.57
78317;BME280;67572;50.930;18.276;2023-07-31T19:50:11;98426.13;;;20.49;56.90
78317;BME280;67572;50.930;18.276;2023-07-31T19:53:15;98422.38;;;20.36;57.66
78317;BME280;67572;50.930;18.276;2023-07-31T19:56:19;98420.44;;;20.44;57.36
78317;BME280;67572;50.930;18.276;2023-07-31T19:59:23;98415.13;;;20.51;56.89
78317;BME280;67572;50.930;18.276;2023-07-31T20:02:29;98409.25;;;20.47;56.63
78317;BME280;67572;50.930;18.276;2023-07-31T20:05:33;98408.47;;;20.39;57.30
78317;BME280;67572;50.930;18.276;2023-07-31T20:08:39;98403.28;;;20.37;57.15
78317;BME280;67572;50.930;18.276;2023-07-31T20:11:44;98395.13;;;20.45;57.59
78317;BME280;67572;50.930;18.276;2023-07-31T20:14:47;98401.59;;;20.21;58.79
78317;BME280;67572;50.930;18.276;2023-07-31T20:17:51;98392.03;;;20.34;58.00
78317;BME280;67572;50.930;18.276;2023-07-31T20:20:54;98380.94;;;20.29;57.20
78317;BME280;67572;50.930;18.276;2023-07-31T20:23:57;98382.16;;;20.26;58.05
78317;BME280;67572;50.930;18.276;2023-07-31T20:27:03;98378.44;;;20.42;57.46
78317;BME280;67572;50.930;18.276;2023-07-31T20:30:08;98377.41;;;20.28;57.19
78317;BME280;67572;50.930;18.276;2023-07-31T20:33:12;98376.00;;;20.47;56.33
78317;BME280;67572;50.930;18.276;2023-07-31T20:36:15;98373.28;;;20.76;55.03
78317;BME280;67572;50.930;18.276;2023-07-31T20:39:19;98365.47;;;20.37;57.57
78317;BME280;67572;50.930;18.276;2023-07-31T20:42:25;98367.81;;;20.40;57.05
78317;BME280;67572;50.930;18.276;2023-07-31T20:45:29;98363.81;;;20.36;56.80
78317;BME280;67572;50.930;18.276;2023-07-31T20:48:34;98363.31;;;20.33;57.27
78317;BME280;67572;50.930;18.276;2023-07-31T20:51:37;98355.59;;;20.30;56.81
78317;BME280;67572;50.930;18.276;2023-07-31T20:54:42;98348.34;;;20.30;56.88
78317;BME280;67572;50.930;18.276;2023-07-31T20:57:47;98345.72;;;20.07;57.59
78317;BME280;67572;50.930;18.276;2023-07-31T21:00:50;98343.03;;;20.22;56.43
78317;BME280;67572;50.930;18.276;2023-07-31T21:03:53;98340.03;;;20.17;56.72
78317;BME280;67572;50.930;18.276;2023-07-31T21:06:57;98347.47;;;20.00;57.02
78317;BME280;67572;50.930;18.276;2023-07-31T21:10:01;98342.81;;;19.94;57.64
78317;BME280;67572;50.930;18.276;2023-07-31T21:13:07;98338.25;;;19.94;57.26
78317;BME280;67572;50.930;18.276;2023-07-31T21:16:11;98340.03;;;20.02;56.88
78317;BME280;67572;50.930;18.276;2023-07-31T21:19:14;98326.38;;;20.04;56.69
78317;BME280;67572;50.930;18.276;2023-07-31T21:22:18;98320.88;;;19.97;57.22
78317;BME280;67572;50.930;18.276;2023-07-31T21:25:22;98312.31;;;19.93;56.74
78317;BME280;67572;50.930;18.276;2023-07-31T21:28:28;98306.16;;;19.85;56.80
78317;BME280;67572;50.930;18.276;2023-07-31T21:31:32;98313.88;;;19.73;57.67
78317;BME280;67572;50.930;18.276;2023-07-31T21:34:36;98310.06;;;19.67;57.70
78317;BME280;67572;50.930;18.276;2023-07-31T21:37:40;98303.31;;;19.63;57.83
78317;BME280;67572;50.930;18.276;2023-07-31T21:40:43;98303.31;;;19.63;58.26
78317;BME280;67572;50.930;18.276;2023-07-31T21:43:49;98312.44;;;19.62;57.38
78317;BME280;67572;50.930;18.276;2023-07-31T21:46:52;98297.97;;;19.55;58.12
78317;BME280;67572;50.930;18.276;2023-07-31T21:49:56;98292.38;;;19.42;58.98
78317;BME280;67572;50.930;18.276;2023-07-31T21:53:09;98285.28;;;19.64;57.55
78317;BME280;67572;50.930;18.276;2023-07-31T21:56:12;98298.88;;;19.71;57.17
78317;BME280;67572;50.930;18.276;2023-07-31T21:59:17;98295.06;;;19.42;58.25
78317;BME280;67572;50.930;18.276;2023-07-31T22:02:20;98292.44;;;19.57;57.98
78317;BME280;67572;50.930;18.276;2023-07-31T22:05:24;98297.22;;;19.47;58.28
78317;BME280;67572;50.930;18.276;2023-07-31T22:08:28;98288.41;;;19.53;58.66
78317;BME280;67572;50.930;18.276;2023-07-31T22:11:31;98279.50;;;19.52;58.71
78317;BME280;67572;50.930;18.276;2023-07-31T22:14:36;98282.44;;;19.80;57.18
78317;BME280;67572;50.930;18.276;2023-07-31T22:17:42;98276.50;;;19.47;58.26
78317;BME280;67572;50.930;18.276;2023-07-31T22:20:48;98279.63;;;19.36;58.60
78317;BME280;67572;50.930;18.276;2023-07-31T22:23:51;98275.53;;;19.40;58.40
78317;BME280;67572;50.930;18.276;2023-07-31T22:26:55;98273.41;;;19.35;59.01
78317;BME280;67572;50.930;18.276;2023-07-31T22:30:00;98273.88;;;19.39;58.54
78317;BME280;67572;50.930;18.276;2023-07-31T22:33:04;98278.69;;;19.29;58.84
78317;BME280;67572;50.930;18.276;2023-07-31T22:36:07;98265.22;;;19.29;58.79
78317;BME280;67572;50.930;18.276;2023-07-31T22:39:11;98263.31;;;19.15;59.08
78317;BME280;67572;50.930;18.276;2023-07-31T22:42:14;98262.41;;;18.99;59.71
78317;BME280;67572;50.930;18.276;2023-07-31T22:45:19;98263.06;;;19.01;59.66
78317;BME280;67572;50.930;18.276;2023-07-31T22:48:22;98254.09;;;18.86;60.02
78317;BME280;67572;50.930;18.276;2023-07-31T22:51:26;98249.91;;;19.06;59.53
78317;BME280;67572;50.930;18.276;2023-07-31T22:54:29;98251.53;;;18.93;60.23
78317;BME280;67572;50.930;18.276;2023-07-31T22:57:33;98240.25;;;18.89;59.62
78317;BME280;67572;50.930;18.276;2023-07-31T23:00:38;98238.81;;;19.01;59.64
78317;BME280;67572;50.930;18.276;2023-07-31T23:03:41;98235.41;;;19.07;59.10
78317;BME280;67572;50.930;18.276;2023-07-31T23:06:45;98227.28;;;18.93;59.76
78317;BME280;67572;50.930;18.276;2023-07-31T23:09:48;98220.22;;;18.92;60.07
78317;BME280;67572;50.930;18.276;2023-07-31T23:12:54;98213.56;;;19.02;59.45
78317;BME280;67572;50.930;18.276;2023-07-31T23:15:59;98219.44;;;18.83;60.17
78317;BME280;67572;50.930;18.276;2023-07-31T23:19:03;98207.91;;;18.74;60.42
78317;BME280;67572;50.930;18.276;2023-07-31T23:22:06;98212.72;;;18.79;60.24
78317;BME280;67572;50.930;18.276;2023-07-31T23:25:10;98207.00;;;18.82;59.96
78317;BME280;67572;50.930;18.276;2023-07-31T23:28:14;98203.56;;;18.88;59.88
78317;BME280;67572;50.930;18.276;2023-07-31T23:31:19;98204.66;;;18.79;59.85
78317;BME280;67572;50.930;18.276;2023-07-31T23:34:22;98204.16;;;18.98;59.40
78317;BME280;67572;50.930;18.276;2023-07-31T23:37:25;98203.16;;;18.99;59.24
78317;BME280;67572;50.930;18.276;2023-07-31T23:40:31;98197.75;;;18.99;59.10
78317;BME280;67572;50.930;18.276;2023-07-31T23:43:34;98188.78;;;19.07;58.95
78317;BME280;67572;50.930;18.276;2023-07-31T23:46:39;98194.75;;;18.94;59.55
78317;BME280;67572;50.930;18.276;2023-07-31T23:49:48;98184.72;;;18.88;59.70
78317;BME280;67572;50.930;18.276;2023-07-31T23:52:51;98181.19;;;18.88;59.86
78317;BME280;67572;50.930;18.276;2023-07-31T23:55:56;98174.00;;;18.80;60.02
78317;BME280;67572;50.930;18.276;2023-07-31T23:59:00;98179.38;;;18.80;60.15
